WetterOnline ( https://www.wetteronline.de )

Wetter aktuell Wurmberg

Aktuelles Wetter: Brocken (1141m)

6-stündlich | Neueste Meldungen
Ortszeit Temperatur Wetter
So, 14.07. 14:00 12.9° C bewölkt
So, 14.07. 8:00 8.4° C wolkenlos
So, 14.07. 2:00 8.8° C wolkenlos
Sa, 13.07. 20:00 11.1° C wolkenlos
Sa, 13.07. 14:00 9.7° C wolkig
Sa, 13.07. 8:00 5.8° C Nebel
Sa, 13.07. 2:00 7.4° C Nebel
Fr, 12.07. 20:00 15.0° C bewölkt
Ortszeit Temperatur Wetter
So, 14.07. 15:30 11.4° C bewölkt
So, 14.07. 15:20 11.4° C bewölkt
So, 14.07. 15:10 10.9° C leichter Regen
So, 14.07. 15:00 11.5° C wolkig
So, 14.07. 14:50 11.5° C wolkig
So, 14.07. 14:40 11.9° C leichter Regen
So, 14.07. 14:30 13.3° C wolkig
So, 14.07. 14:00 12.9° C bewölkt
So, 14.07. 13:30 12.4° C wolkig
So, 14.07. 13:00 11.8° C bewölkt
So, 14.07. 12:30 12.0° C bewölkt
Ortszeit Relative Feuchte Sichtweite
So, 14.07. 14:00 60% 45 km
So, 14.07. 8:00 80% 55 km
So, 14.07. 2:00 79% >70 km
Sa, 13.07. 20:00 72% >70 km
Sa, 13.07. 14:00 80% 50 km
Sa, 13.07. 8:00 100% 100 m
Sa, 13.07. 2:00 99% <100 m
Fr, 12.07. 20:00 94% 45 km
Ortszeit Relative Feuchte Sichtweite
So, 14.07. 15:30 77% 60 km
So, 14.07. 15:20 77% -
So, 14.07. 15:10 78% -
So, 14.07. 15:00 75% 65 km
So, 14.07. 14:50 75% -
So, 14.07. 14:40 74% -
So, 14.07. 14:30 62% >70 km
So, 14.07. 14:00 60% 45 km
So, 14.07. 13:30 67% >70 km
So, 14.07. 13:00 68% >70 km
So, 14.07. 12:30 67% 65 km
Ortszeit Niederschlagsmenge Niederschlagsart
So, 14.07. 14:00 0.0 l/m2 in 6 Std. -
So, 14.07. 8:00 0.0 l/m2 in 12 Std. -
So, 14.07. 2:00 0.0 l/m2 in 6 Std. -
Sa, 13.07. 20:00 0.0 l/m2 in 12 Std. -
Sa, 13.07. 14:00 0.0 l/m2 in 6 Std. -
Sa, 13.07. 8:00 1 l/m2 in 12 Std. -
Sa, 13.07. 2:00 0.1 l/m2 in 6 Std. -
Fr, 12.07. 20:00 9 l/m2 in 12 Std. Regen
Ortszeit Niederschlagsmenge Niederschlagsart
So, 14.07. 15:30 1.0 l/m2 in 30 Min Schneeregen
So, 14.07. 15:20 keine Meldung -
So, 14.07. 15:10 keine Meldung -
So, 14.07. 15:00 0.5 l/m2 in 1 Std. Regen, Niederschlag
So, 14.07. 14:50 keine Meldung -
So, 14.07. 14:40 keine Meldung -
So, 14.07. 14:30 0.0 l/m2 in 30 Min -
So, 14.07. 14:00 0.0 l/m2 in 1 Std. -
So, 14.07. 13:30 0.0 l/m2 in 30 Min -
So, 14.07. 13:00 0.0 l/m2 in 1 Std. -
So, 14.07. 12:30 0.0 l/m2 in 30 Min -
Ortszeit Stärke Spitze Richtung
km/h Bft. km/h Grad Sektor
So, 14.07. 14:00 36 5 50 210° SW
So, 14.07. 8:00 37 5 46 240° SW
So, 14.07. 2:00 37 5 46 240° SW
Sa, 13.07. 20:00 33 5 67 250° W
Sa, 13.07. 14:00 48 6 76 220° SW
Sa, 13.07. 8:00 59 7 78 240° SW
Sa, 13.07. 2:00 37 5 70 260° W
Fr, 12.07. 20:00 47 6 68 230° SW
Ortszeit Stärke Spitze Richtung
km/h Bft. km/h Grad Sektor
So, 14.07. 15:30 30 5 48 220° SW
So, 14.07. 15:20 30 5 - 220° SW
So, 14.07. 15:10 33 5 - 210° SW
So, 14.07. 15:00 28 4 50 230° SW
So, 14.07. 14:50 28 4 - 230° SW
So, 14.07. 14:40 32 5 - 200° S
So, 14.07. 14:30 36 5 50 220° SW
So, 14.07. 14:00 36 5 50 210° SW
So, 14.07. 13:30 29 5 40 220° SW
So, 14.07. 13:00 28 4 43 210° SW
So, 14.07. 12:30 28 4 43 230° SW
Ortszeit Untergrenze Bedeckung Gattung
total tief tief mittel hoch
So, 14.07. 14:00 840 m 8/8 4/8 - - -
So, 14.07. 8:00 - 0/8 0/8 - - -
So, 14.07. 2:00 - 0/8 0/8 - - -
Sa, 13.07. 20:00 - 0/8 0/8 - - -
Sa, 13.07. 14:00 360 m 5/8 5/8 - - -
Sa, 13.07. 8:00 <30 m 7/8 0/8 - - -
Sa, 13.07. 2:00 <30 m 8/8 0/8 - - -
Fr, 12.07. 20:00 <30 m 7/8 0/8 - - -
Ortszeit Bedeckungsgrad in Achtel und Wolkenuntergrenze
So, 14.07. 15:30 3(870m) 6(2100m) 7(2400m)
So, 14.07. 15:20 3(870m) 6(2100m) 7(2400m)
So, 14.07. 15:10 7
So, 14.07. 15:00 3(720m) 6(1500m) 6(2100m)
So, 14.07. 14:50 3(720m) 6(1500m) 6(2100m)
So, 14.07. 14:40 7
So, 14.07. 14:30 1(870m) 5(1800m)
So, 14.07. 14:00 4(840m) 8(5400m) 8(6000m)
So, 14.07. 13:30 1(2100m) 8(4800m) 8(6000m)
So, 14.07. 13:00 2(690m) 7(2100m) 7(5400m)
So, 14.07. 12:30 4(690m) 5(960m) 8(5700m)
Ortszeit Stationsdruck (hPa) Tendenz (hPa in 3 Std.)
So, 14.07. 14:00 885 0,0
So, 14.07. 8:00 884 + 0,4
So, 14.07. 2:00 884 - 0,2
Sa, 13.07. 20:00 884 + 0,8
Sa, 13.07. 14:00 882 + 0,8
Sa, 13.07. 8:00 880 + 0,7
Sa, 13.07. 2:00 880 + 0,7
Fr, 12.07. 20:00 880 - 0,9
Ortszeit Stationsdruck (hPa) Tendenz (hPa in 3 Std.)
So, 14.07. 15:30 885 - 0,1
So, 14.07. 15:20 885 keine Meldung
So, 14.07. 15:10 885 keine Meldung
So, 14.07. 15:00 885 0,0
So, 14.07. 14:50 885 keine Meldung
So, 14.07. 14:40 885 keine Meldung
So, 14.07. 14:30 885 - 0,1
So, 14.07. 14:00 885 0,0
So, 14.07. 13:30 885 - 0,1
So, 14.07. 13:00 885 0,0
So, 14.07. 12:30 885 + 0,1
Ortszeit Schneehöhe (cm)
So, 14.07. 14:00 0
So, 14.07. 8:00 0
So, 14.07. 2:00 0
Sa, 13.07. 20:00 0
Sa, 13.07. 14:00 0
Sa, 13.07. 8:00 0
Sa, 13.07. 2:00 0
Fr, 12.07. 20:00 0
Ortszeit Schneehöhe (cm)
So, 14.07. 15:30 0
So, 14.07. 15:20 0
So, 14.07. 15:10 -
So, 14.07. 15:00 0
So, 14.07. 14:50 0
So, 14.07. 14:40 -
So, 14.07. 14:30 0
So, 14.07. 14:00 0
So, 14.07. 13:30 0
So, 14.07. 13:00 0
So, 14.07. 12:30 0
Link zu dieser Seite / Seite empfehlen

Das Wetter in ...